sensor_id;sensor_type;location;lat;lon;timestamp;temperature;humidity
4509;DHT22;2267;48.816;9.230;2023-07-13T00:01:53;24.70;71.60
4509;DHT22;2267;48.816;9.230;2023-07-13T00:04:22;24.70;71.70
4509;DHT22;2267;48.816;9.230;2023-07-13T00:06:52;24.70;71.40
4509;DHT22;2267;48.816;9.230;2023-07-13T00:09:19;24.60;71.40
4509;DHT22;2267;48.816;9.230;2023-07-13T00:11:52;24.60;71.30
4509;DHT22;2267;48.816;9.230;2023-07-13T00:14:19;24.50;71.30
4509;DHT22;2267;48.816;9.230;2023-07-13T00:16:46;24.50;71.20
4509;DHT22;2267;48.816;9.230;2023-07-13T00:19:14;24.50;71.10
4509;DHT22;2267;48.816;9.230;2023-07-13T00:21:47;24.40;70.60
4509;DHT22;2267;48.816;9.230;2023-07-13T00:24:16;24.40;70.80
4509;DHT22;2267;48.816;9.230;2023-07-13T00:26:48;24.40;71.10
4509;DHT22;2267;48.816;9.230;2023-07-13T00:29:15;24.40;70.80
4509;DHT22;2267;48.816;9.230;2023-07-13T00:31:43;24.40;70.60
4509;DHT22;2267;48.816;9.230;2023-07-13T00:34:11;24.30;70.60
4509;DHT22;2267;48.816;9.230;2023-07-13T00:36:38;24.30;70.50
4509;DHT22;2267;48.816;9.230;2023-07-13T00:39:05;24.20;70.20
4509;DHT22;2267;48.816;9.230;2023-07-13T00:41:32;24.10;70.60
4509;DHT22;2267;48.816;9.230;2023-07-13T00:43:59;24.10;70.50
4509;DHT22;2267;48.816;9.230;2023-07-13T00:46:33;24.10;70.70
4509;DHT22;2267;48.816;9.230;2023-07-13T00:49:04;24.10;70.70
4509;DHT22;2267;48.816;9.230;2023-07-13T00:51:45;24.10;70.80
4509;DHT22;2267;48.816;9.230;2023-07-13T00:54:23;24.10;70.80
4509;DHT22;2267;48.816;9.230;2023-07-13T00:56:53;24.10;70.70
4509;DHT22;2267;48.816;9.230;2023-07-13T00:59:21;24.20;70.70
4509;DHT22;2267;48.816;9.230;2023-07-13T01:01:49;24.20;70.70
4509;DHT22;2267;48.816;9.230;2023-07-13T01:04:17;24.20;70.50
4509;DHT22;2267;48.816;9.230;2023-07-13T01:06:45;24.20;70.40
4509;DHT22;2267;48.816;9.230;2023-07-13T01:09:14;24.30;70.60
4509;DHT22;2267;48.816;9.230;2023-07-13T01:11:41;24.30;70.10
4509;DHT22;2267;48.816;9.230;2023-07-13T01:14:08;24.20;69.60
4509;DHT22;2267;48.816;9.230;2023-07-13T01:16:37;24.30;70.60
4509;DHT22;2267;48.816;9.230;2023-07-13T01:19:53;24.30;71.00
4509;DHT22;2267;48.816;9.230;2023-07-13T01:22:14;24.30;70.70
4509;DHT22;2267;48.816;9.230;2023-07-13T01:24:43;24.30;71.40
4509;DHT22;2267;48.816;9.230;2023-07-13T01:27:14;24.30;72.10
4509;DHT22;2267;48.816;9.230;2023-07-13T01:29:43;24.30;73.00
4509;DHT22;2267;48.816;9.230;2023-07-13T01:32:14;24.30;71.90
4509;DHT22;2267;48.816;9.230;2023-07-13T01:34:41;24.20;71.00
4509;DHT22;2267;48.816;9.230;2023-07-13T01:37:10;24.20;71.00
4509;DHT22;2267;48.816;9.230;2023-07-13T01:39:37;24.20;70.70
4509;DHT22;2267;48.816;9.230;2023-07-13T01:42:05;24.20;71.70
4509;DHT22;2267;48.816;9.230;2023-07-13T01:44:32;24.20;70.60
4509;DHT22;2267;48.816;9.230;2023-07-13T01:46:59;24.10;71.30
4509;DHT22;2267;48.816;9.230;2023-07-13T01:49:25;24.10;71.60
4509;DHT22;2267;48.816;9.230;2023-07-13T01:51:52;24.10;72.70
4509;DHT22;2267;48.816;9.230;2023-07-13T01:54:19;24.10;72.50
4509;DHT22;2267;48.816;9.230;2023-07-13T01:56:46;24.00;72.40
4509;DHT22;2267;48.816;9.230;2023-07-13T01:59:13;24.00;71.70
4509;DHT22;2267;48.816;9.230;2023-07-13T02:01:39;24.00;71.90
4509;DHT22;2267;48.816;9.230;2023-07-13T02:04:06;24.00;71.50
4509;DHT22;2267;48.816;9.230;2023-07-13T02:06:33;24.00;72.20
4509;DHT22;2267;48.816;9.230;2023-07-13T02:09:00;23.90;72.10
4509;DHT22;2267;48.816;9.230;2023-07-13T02:11:27;23.90;72.40
4509;DHT22;2267;48.816;9.230;2023-07-13T02:14:02;23.90;73.10
4509;DHT22;2267;48.816;9.230;2023-07-13T02:16:30;23.90;72.30
4509;DHT22;2267;48.816;9.230;2023-07-13T02:18:57;23.90;72.80
4509;DHT22;2267;48.816;9.230;2023-07-13T02:21:24;23.80;72.70
4509;DHT22;2267;48.816;9.230;2023-07-13T02:23:51;23.80;73.00
4509;DHT22;2267;48.816;9.230;2023-07-13T02:26:19;23.70;73.20
4509;DHT22;2267;48.816;9.230;2023-07-13T02:28:46;23.70;73.40
4509;DHT22;2267;48.816;9.230;2023-07-13T02:31:15;23.70;73.70
4509;DHT22;2267;48.816;9.230;2023-07-13T02:33:42;23.70;74.00
4509;DHT22;2267;48.816;9.230;2023-07-13T02:36:10;23.60;74.00
4509;DHT22;2267;48.816;9.230;2023-07-13T02:38:37;23.60;74.50
4509;DHT22;2267;48.816;9.230;2023-07-13T02:41:06;23.60;74.50
4509;DHT22;2267;48.816;9.230;2023-07-13T02:43:33;23.50;74.30
4509;DHT22;2267;48.816;9.230;2023-07-13T02:46:01;23.50;74.30
4509;DHT22;2267;48.816;9.230;2023-07-13T02:48:34;23.50;74.80
4509;DHT22;2267;48.816;9.230;2023-07-13T02:51:01;23.40;75.20
4509;DHT22;2267;48.816;9.230;2023-07-13T02:53:28;23.40;75.40
4509;DHT22;2267;48.816;9.230;2023-07-13T02:55:55;23.30;76.30
4509;DHT22;2267;48.816;9.230;2023-07-13T02:58:22;23.30;75.50
4509;DHT22;2267;48.816;9.230;2023-07-13T03:00:49;23.30;76.20
4509;DHT22;2267;48.816;9.230;2023-07-13T03:03:17;23.20;76.10
4509;DHT22;2267;48.816;9.230;2023-07-13T03:05:45;23.20;76.40
4509;DHT22;2267;48.816;9.230;2023-07-13T03:08:17;23.10;76.20
4509;DHT22;2267;48.816;9.230;2023-07-13T03:10:44;23.10;76.30
4509;DHT22;2267;48.816;9.230;2023-07-13T03:13:11;23.10;76.80
4509;DHT22;2267;48.816;9.230;2023-07-13T03:15:38;23.00;76.30
4509;DHT22;2267;48.816;9.230;2023-07-13T03:18:05;23.10;77.00
4509;DHT22;2267;48.816;9.230;2023-07-13T03:20:33;23.00;77.00
4509;DHT22;2267;48.816;9.230;2023-07-13T03:23:00;23.00;76.60
4509;DHT22;2267;48.816;9.230;2023-07-13T03:25:27;23.00;77.80
4509;DHT22;2267;48.816;9.230;2023-07-13T03:27:54;23.00;78.20
4509;DHT22;2267;48.816;9.230;2023-07-13T03:30:21;23.00;78.70
4509;DHT22;2267;48.816;9.230;2023-07-13T03:32:48;22.90;78.30
4509;DHT22;2267;48.816;9.230;2023-07-13T03:35:15;22.90;78.30
4509;DHT22;2267;48.816;9.230;2023-07-13T03:37:42;23.00;78.90
4509;DHT22;2267;48.816;9.230;2023-07-13T03:40:10;23.00;78.80
4509;DHT22;2267;48.816;9.230;2023-07-13T03:42:37;23.00;78.90
4509;DHT22;2267;48.816;9.230;2023-07-13T03:45:04;22.90;78.00
4509;DHT22;2267;48.816;9.230;2023-07-13T03:47:31;22.90;78.40
4509;DHT22;2267;48.816;9.230;2023-07-13T03:49:58;22.90;78.80
4509;DHT22;2267;48.816;9.230;2023-07-13T03:52:25;23.00;80.10
4509;DHT22;2267;48.816;9.230;2023-07-13T03:54:52;22.90;78.80
4509;DHT22;2267;48.816;9.230;2023-07-13T03:57:19;22.90;79.30
4509;DHT22;2267;48.816;9.230;2023-07-13T03:59:46;22.90;78.70
4509;DHT22;2267;48.816;9.230;2023-07-13T04:02:12;22.90;78.30
4509;DHT22;2267;48.816;9.230;2023-07-13T04:04:40;22.90;78.10
4509;DHT22;2267;48.816;9.230;2023-07-13T04:07:07;23.00;79.10
4509;DHT22;2267;48.816;9.230;2023-07-13T04:09:35;22.90;79.00
4509;DHT22;2267;48.816;9.230;2023-07-13T04:12:02;22.90;79.10
4509;DHT22;2267;48.816;9.230;2023-07-13T04:14:29;22.90;78.60
4509;DHT22;2267;48.816;9.230;2023-07-13T04:16:56;22.90;79.00
4509;DHT22;2267;48.816;9.230;2023-07-13T04:19:24;22.90;79.30
4509;DHT22;2267;48.816;9.230;2023-07-13T04:21:50;22.90;78.50
4509;DHT22;2267;48.816;9.230;2023-07-13T04:24:17;22.90;78.30
4509;DHT22;2267;48.816;9.230;2023-07-13T04:26:44;22.90;78.90
4509;DHT22;2267;48.816;9.230;2023-07-13T04:29:11;22.90;78.70
4509;DHT22;2267;48.816;9.230;2023-07-13T04:31:38;22.90;78.30
4509;DHT22;2267;48.816;9.230;2023-07-13T04:34:05;22.90;78.40
4509;DHT22;2267;48.816;9.230;2023-07-13T04:36:32;22.90;77.90
4509;DHT22;2267;48.816;9.230;2023-07-13T04:38:59;23.00;78.50
4509;DHT22;2267;48.816;9.230;2023-07-13T04:41:26;23.00;78.60
4509;DHT22;2267;48.816;9.230;2023-07-13T04:43:54;23.00;78.50
4509;DHT22;2267;48.816;9.230;2023-07-13T04:46:22;23.00;78.30
4509;DHT22;2267;48.816;9.230;2023-07-13T04:48:50;22.90;76.70
4509;DHT22;2267;48.816;9.230;2023-07-13T04:51:20;22.90;77.00
4509;DHT22;2267;48.816;9.230;2023-07-13T04:53:47;22.90;76.70
4509;DHT22;2267;48.816;9.230;2023-07-13T04:56:13;22.90;77.20
4509;DHT22;2267;48.816;9.230;2023-07-13T04:58:40;22.90;77.30
4509;DHT22;2267;48.816;9.230;2023-07-13T05:01:07;22.90;77.00
4509;DHT22;2267;48.816;9.230;2023-07-13T05:03:38;22.90;76.90
4509;DHT22;2267;48.816;9.230;2023-07-13T05:06:07;22.90;77.10
4509;DHT22;2267;48.816;9.230;2023-07-13T05:08:36;22.90;77.50
4509;DHT22;2267;48.816;9.230;2023-07-13T05:11:04;22.80;77.10
4509;DHT22;2267;48.816;9.230;2023-07-13T05:13:31;22.90;77.80
4509;DHT22;2267;48.816;9.230;2023-07-13T05:16:01;22.90;77.90
4509;DHT22;2267;48.816;9.230;2023-07-13T05:18:29;22.90;77.70
4509;DHT22;2267;48.816;9.230;2023-07-13T05:21:03;22.90;77.70
4509;DHT22;2267;48.816;9.230;2023-07-13T05:23:33;23.00;77.90
4509;DHT22;2267;48.816;9.230;2023-07-13T05:26:00;23.00;76.70
4509;DHT22;2267;48.816;9.230;2023-07-13T05:28:28;23.00;75.70
4509;DHT22;2267;48.816;9.230;2023-07-13T05:30:55;23.00;75.10
4509;DHT22;2267;48.816;9.230;2023-07-13T05:33:23;23.10;75.00
4509;DHT22;2267;48.816;9.230;2023-07-13T05:35:50;23.10;74.50
4509;DHT22;2267;48.816;9.230;2023-07-13T05:38:17;23.10;75.00
4509;DHT22;2267;48.816;9.230;2023-07-13T05:40:45;23.10;74.30
4509;DHT22;2267;48.816;9.230;2023-07-13T05:43:12;23.20;74.50
4509;DHT22;2267;48.816;9.230;2023-07-13T05:45:39;23.20;74.20
4509;DHT22;2267;48.816;9.230;2023-07-13T05:48:06;23.20;74.10
4509;DHT22;2267;48.816;9.230;2023-07-13T05:50:33;23.20;73.50
4509;DHT22;2267;48.816;9.230;2023-07-13T05:53:00;23.10;73.20
4509;DHT22;2267;48.816;9.230;2023-07-13T05:55:27;23.20;73.40
4509;DHT22;2267;48.816;9.230;2023-07-13T05:57:54;23.20;73.90
4509;DHT22;2267;48.816;9.230;2023-07-13T06:00:21;23.20;73.40
4509;DHT22;2267;48.816;9.230;2023-07-13T06:02:48;23.20;75.60
4509;DHT22;2267;48.816;9.230;2023-07-13T06:05:14;23.30;75.70
4509;DHT22;2267;48.816;9.230;2023-07-13T06:07:41;23.40;76.50
4509;DHT22;2267;48.816;9.230;2023-07-13T06:10:09;23.50;75.10
4509;DHT22;2267;48.816;9.230;2023-07-13T06:12:36;23.60;75.30
4509;DHT22;2267;48.816;9.230;2023-07-13T06:15:03;23.70;74.60
4509;DHT22;2267;48.816;9.230;2023-07-13T06:17:30;23.70;74.80
4509;DHT22;2267;48.816;9.230;2023-07-13T06:19:57;23.80;76.30
4509;DHT22;2267;48.816;9.230;2023-07-13T06:22:24;23.90;75.10
4509;DHT22;2267;48.816;9.230;2023-07-13T06:24:52;24.00;74.90
4509;DHT22;2267;48.816;9.230;2023-07-13T06:27:18;24.10;74.40
4509;DHT22;2267;48.816;9.230;2023-07-13T06:29:45;24.10;72.00
4509;DHT22;2267;48.816;9.230;2023-07-13T06:32:12;24.10;73.30
4509;DHT22;2267;48.816;9.230;2023-07-13T06:34:39;24.10;73.30
4509;DHT22;2267;48.816;9.230;2023-07-13T06:37:09;24.20;73.20
4509;DHT22;2267;48.816;9.230;2023-07-13T06:39:36;24.10;70.10
4509;DHT22;2267;48.816;9.230;2023-07-13T06:42:03;24.00;71.10
4509;DHT22;2267;48.816;9.230;2023-07-13T06:44:30;23.90;70.40
4509;DHT22;2267;48.816;9.230;2023-07-13T06:46:56;24.00;70.90
4509;DHT22;2267;48.816;9.230;2023-07-13T06:49:23;24.00;70.10
4509;DHT22;2267;48.816;9.230;2023-07-13T06:51:50;24.00;69.80
4509;DHT22;2267;48.816;9.230;2023-07-13T06:54:17;24.00;69.70
4509;DHT22;2267;48.816;9.230;2023-07-13T06:56:44;23.90;68.60
4509;DHT22;2267;48.816;9.230;2023-07-13T06:59:10;23.90;68.30
4509;DHT22;2267;48.816;9.230;2023-07-13T07:01:37;23.90;68.70
4509;DHT22;2267;48.816;9.230;2023-07-13T07:04:07;23.80;68.70
4509;DHT22;2267;48.816;9.230;2023-07-13T07:06:35;23.80;69.30
4509;DHT22;2267;48.816;9.230;2023-07-13T07:09:02;23.80;69.20
4509;DHT22;2267;48.816;9.230;2023-07-13T07:11:29;23.80;69.80
4509;DHT22;2267;48.816;9.230;2023-07-13T07:13:55;23.80;68.60
4509;DHT22;2267;48.816;9.230;2023-07-13T07:16:24;23.80;68.50
4509;DHT22;2267;48.816;9.230;2023-07-13T07:18:51;23.80;68.50
4509;DHT22;2267;48.816;9.230;2023-07-13T07:21:18;23.90;68.10
4509;DHT22;2267;48.816;9.230;2023-07-13T07:23:46;23.90;67.60
4509;DHT22;2267;48.816;9.230;2023-07-13T07:26:13;23.90;67.30
4509;DHT22;2267;48.816;9.230;2023-07-13T07:28:39;23.90;67.00
4509;DHT22;2267;48.816;9.230;2023-07-13T07:31:11;24.00;67.60
4509;DHT22;2267;48.816;9.230;2023-07-13T07:33:41;24.00;66.60
4509;DHT22;2267;48.816;9.230;2023-07-13T07:36:08;24.00;64.90
4509;DHT22;2267;48.816;9.230;2023-07-13T07:38:38;24.00;64.70
4509;DHT22;2267;48.816;9.230;2023-07-13T07:41:05;24.00;64.70
4509;DHT22;2267;48.816;9.230;2023-07-13T07:43:35;24.10;64.50
4509;DHT22;2267;48.816;9.230;2023-07-13T07:46:03;24.10;64.70
4509;DHT22;2267;48.816;9.230;2023-07-13T07:48:30;24.10;64.70
4509;DHT22;2267;48.816;9.230;2023-07-13T07:50:57;24.10;65.20
4509;DHT22;2267;48.816;9.230;2023-07-13T07:53:24;24.10;65.10
4509;DHT22;2267;48.816;9.230;2023-07-13T07:55:51;24.10;64.80
4509;DHT22;2267;48.816;9.230;2023-07-13T07:58:20;24.20;64.70
4509;DHT22;2267;48.816;9.230;2023-07-13T08:01:07;24.10;64.10
4509;DHT22;2267;48.816;9.230;2023-07-13T08:03:37;24.20;63.50
4509;DHT22;2267;48.816;9.230;2023-07-13T08:06:07;24.20;63.30
4509;DHT22;2267;48.816;9.230;2023-07-13T08:08:37;24.30;62.10
4509;DHT22;2267;48.816;9.230;2023-07-13T08:11:05;24.30;61.90
4509;DHT22;2267;48.816;9.230;2023-07-13T08:13:52;24.30;61.70
4509;DHT22;2267;48.816;9.230;2023-07-13T08:16:22;24.40;62.00
4509;DHT22;2267;48.816;9.230;2023-07-13T08:18:49;24.40;62.00
4509;DHT22;2267;48.816;9.230;2023-07-13T08:21:16;24.40;61.50
4509;DHT22;2267;48.816;9.230;2023-07-13T08:23:42;24.40;62.10
4509;DHT22;2267;48.816;9.230;2023-07-13T08:26:09;24.40;62.20
4509;DHT22;2267;48.816;9.230;2023-07-13T08:28:36;24.40;61.80
4509;DHT22;2267;48.816;9.230;2023-07-13T08:31:05;24.40;61.40
4509;DHT22;2267;48.816;9.230;2023-07-13T08:33:34;24.40;61.40
4509;DHT22;2267;48.816;9.230;2023-07-13T08:36:01;24.50;61.10
4509;DHT22;2267;48.816;9.230;2023-07-13T08:38:28;24.40;60.10
4509;DHT22;2267;48.816;9.230;2023-07-13T08:40:56;24.50;61.50
4509;DHT22;2267;48.816;9.230;2023-07-13T08:43:28;24.50;62.30
4509;DHT22;2267;48.816;9.230;2023-07-13T08:48:41;24.60;59.80
4509;DHT22;2267;48.816;9.230;2023-07-13T08:51:17;24.60;60.20
4509;DHT22;2267;48.816;9.230;2023-07-13T08:53:55;24.60;60.30
4509;DHT22;2267;48.816;9.230;2023-07-13T08:56:27;24.70;59.70
4509;DHT22;2267;48.816;9.230;2023-07-13T08:59:17;24.60;59.20
4509;DHT22;2267;48.816;9.230;2023-07-13T09:04:32;24.60;59.30
4509;DHT22;2267;48.816;9.230;2023-07-13T09:07:24;24.70;60.70
4509;DHT22;2267;48.816;9.230;2023-07-13T09:15:28;24.80;59.50
4509;DHT22;2267;48.816;9.230;2023-07-13T09:23:38;25.00;59.50
4509;DHT22;2267;48.816;9.230;2023-07-13T09:28:45;25.10;59.90
4509;DHT22;2267;48.816;9.230;2023-07-13T09:33:56;25.20;59.40
4509;DHT22;2267;48.816;9.230;2023-07-13T09:36:30;25.30;59.70
4509;DHT22;2267;48.816;9.230;2023-07-13T09:44:16;25.40;59.40
4509;DHT22;2267;48.816;9.230;2023-07-13T09:46:46;25.50;59.00
4509;DHT22;2267;48.816;9.230;2023-07-13T09:49:18;25.50;58.90
4509;DHT22;2267;48.816;9.230;2023-07-13T09:51:58;25.60;58.60
4509;DHT22;2267;48.816;9.230;2023-07-13T09:54:26;25.60;58.70
4509;DHT22;2267;48.816;9.230;2023-07-13T09:56:57;25.60;59.00
4509;DHT22;2267;48.816;9.230;2023-07-13T09:59:41;25.70;59.00
4509;DHT22;2267;48.816;9.230;2023-07-13T10:02:34;25.70;58.60
4509;DHT22;2267;48.816;9.230;2023-07-13T10:05:14;25.80;58.40
4509;DHT22;2267;48.816;9.230;2023-07-13T10:07:45;25.80;58.60
4509;DHT22;2267;48.816;9.230;2023-07-13T10:10:17;25.90;58.30
4509;DHT22;2267;48.816;9.230;2023-07-13T10:12:44;25.90;57.70
4509;DHT22;2267;48.816;9.230;2023-07-13T10:15:18;26.00;58.40
4509;DHT22;2267;48.816;9.230;2023-07-13T10:17:52;26.00;57.30
4509;DHT22;2267;48.816;9.230;2023-07-13T10:20:20;26.00;57.10
4509;DHT22;2267;48.816;9.230;2023-07-13T10:23:01;25.90;57.10
4509;DHT22;2267;48.816;9.230;2023-07-13T10:25:35;25.90;57.60
4509;DHT22;2267;48.816;9.230;2023-07-13T10:30:40;26.10;57.30
4509;DHT22;2267;48.816;9.230;2023-07-13T10:33:12;26.10;57.00
4509;DHT22;2267;48.816;9.230;2023-07-13T10:35:43;26.20;57.40
4509;DHT22;2267;48.816;9.230;2023-07-13T10:38:15;26.30;57.00
4509;DHT22;2267;48.816;9.230;2023-07-13T10:40:52;26.30;56.90
4509;DHT22;2267;48.816;9.230;2023-07-13T10:43:25;26.40;56.50
4509;DHT22;2267;48.816;9.230;2023-07-13T10:45:54;26.40;56.20
4509;DHT22;2267;48.816;9.230;2023-07-13T10:48:23;26.40;56.20
4509;DHT22;2267;48.816;9.230;2023-07-13T10:50:52;26.40;56.70
4509;DHT22;2267;48.816;9.230;2023-07-13T10:53:22;26.40;57.10
4509;DHT22;2267;48.816;9.230;2023-07-13T10:55:55;26.50;56.80
4509;DHT22;2267;48.816;9.230;2023-07-13T10:58:38;26.50;57.40
4509;DHT22;2267;48.816;9.230;2023-07-13T11:01:17;26.60;57.00
4509;DHT22;2267;48.816;9.230;2023-07-13T11:04:00;26.60;56.50
4509;DHT22;2267;48.816;9.230;2023-07-13T11:09:30;26.80;57.50
4509;DHT22;2267;48.816;9.230;2023-07-13T11:12:26;26.90;57.40
4509;DHT22;2267;48.816;9.230;2023-07-13T11:22:46;27.20;56.50
4509;DHT22;2267;48.816;9.230;2023-07-13T11:25:33;27.20;57.30
4509;DHT22;2267;48.816;9.230;2023-07-13T11:33:25;27.40;56.80
4509;DHT22;2267;48.816;9.230;2023-07-13T11:36:00;27.60;56.70
4509;DHT22;2267;48.816;9.230;2023-07-13T11:38:42;27.70;55.40
4509;DHT22;2267;48.816;9.230;2023-07-13T11:41:19;27.80;54.90
4509;DHT22;2267;48.816;9.230;2023-07-13T11:43:53;28.00;55.10
4509;DHT22;2267;48.816;9.230;2023-07-13T11:46:23;28.10;54.80
4509;DHT22;2267;48.816;9.230;2023-07-13T11:48:52;28.00;53.90
4509;DHT22;2267;48.816;9.230;2023-07-13T11:51:25;27.80;53.80
4509;DHT22;2267;48.816;9.230;2023-07-13T11:53:54;27.70;54.00
4509;DHT22;2267;48.816;9.230;2023-07-13T11:56:25;27.50;53.60
4509;DHT22;2267;48.816;9.230;2023-07-13T11:58:54;27.60;54.10
4509;DHT22;2267;48.816;9.230;2023-07-13T12:01:26;27.80;54.40
4509;DHT22;2267;48.816;9.230;2023-07-13T12:03:56;28.00;53.70
4509;DHT22;2267;48.816;9.230;2023-07-13T12:06:32;28.10;53.10
4509;DHT22;2267;48.816;9.230;2023-07-13T12:09:01;28.30;52.60
4509;DHT22;2267;48.816;9.230;2023-07-13T12:11:30;28.30;52.30
4509;DHT22;2267;48.816;9.230;2023-07-13T12:14:01;28.50;53.00
4509;DHT22;2267;48.816;9.230;2023-07-13T12:16:29;28.50;52.90
4509;DHT22;2267;48.816;9.230;2023-07-13T12:18:57;28.60;53.30
4509;DHT22;2267;48.816;9.230;2023-07-13T12:21:36;28.90;53.20
4509;DHT22;2267;48.816;9.230;2023-07-13T12:24:04;29.00;53.10
4509;DHT22;2267;48.816;9.230;2023-07-13T12:26:32;28.90;52.60
4509;DHT22;2267;48.816;9.230;2023-07-13T12:29:01;28.80;52.30
4509;DHT22;2267;48.816;9.230;2023-07-13T12:31:42;28.60;52.30
4509;DHT22;2267;48.816;9.230;2023-07-13T12:34:13;28.50;52.30
4509;DHT22;2267;48.816;9.230;2023-07-13T12:36:51;28.50;52.30
4509;DHT22;2267;48.816;9.230;2023-07-13T12:41:49;28.60;51.80
4509;DHT22;2267;48.816;9.230;2023-07-13T12:44:28;28.50;51.30
4509;DHT22;2267;48.816;9.230;2023-07-13T12:47:04;28.60;50.80
4509;DHT22;2267;48.816;9.230;2023-07-13T12:49:33;28.80;51.60
4509;DHT22;2267;48.816;9.230;2023-07-13T12:52:03;28.70;51.10
4509;DHT22;2267;48.816;9.230;2023-07-13T12:54:31;28.90;51.80
4509;DHT22;2267;48.816;9.230;2023-07-13T12:56:59;29.10;51.40
4509;DHT22;2267;48.816;9.230;2023-07-13T12:59:31;29.30;51.30
4509;DHT22;2267;48.816;9.230;2023-07-13T13:02:00;29.50;50.60
4509;DHT22;2267;48.816;9.230;2023-07-13T13:04:27;29.50;49.50
4509;DHT22;2267;48.816;9.230;2023-07-13T13:07:03;29.40;49.10
4509;DHT22;2267;48.816;9.230;2023-07-13T13:09:30;29.30;49.50
4509;DHT22;2267;48.816;9.230;2023-07-13T13:11:58;29.40;49.90
4509;DHT22;2267;48.816;9.230;2023-07-13T13:14:25;29.50;50.10
4509;DHT22;2267;48.816;9.230;2023-07-13T13:16:52;29.70;49.60
4509;DHT22;2267;48.816;9.230;2023-07-13T13:19:26;29.80;49.40
4509;DHT22;2267;48.816;9.230;2023-07-13T13:21:55;29.90;48.20
4509;DHT22;2267;48.816;9.230;2023-07-13T13:24:26;30.00;48.10
4509;DHT22;2267;48.816;9.230;2023-07-13T13:26:54;30.00;47.40
4509;DHT22;2267;48.816;9.230;2023-07-13T13:29:24;30.00;48.10
4509;DHT22;2267;48.816;9.230;2023-07-13T13:31:52;30.00;48.80
4509;DHT22;2267;48.816;9.230;2023-07-13T13:34:21;30.10;48.20
4509;DHT22;2267;48.816;9.230;2023-07-13T13:36:51;30.20;48.20
4509;DHT22;2267;48.816;9.230;2023-07-13T13:39:34;30.30;48.40
4509;DHT22;2267;48.816;9.230;2023-07-13T13:42:01;30.50;48.00
4509;DHT22;2267;48.816;9.230;2023-07-13T13:44:28;30.60;47.50
4509;DHT22;2267;48.816;9.230;2023-07-13T13:46:55;30.60;46.20
4509;DHT22;2267;48.816;9.230;2023-07-13T13:49:27;30.70;46.50
4509;DHT22;2267;48.816;9.230;2023-07-13T13:51:54;30.80;46.70
4509;DHT22;2267;48.816;9.230;2023-07-13T13:54:24;30.90;47.00
4509;DHT22;2267;48.816;9.230;2023-07-13T13:56:53;30.90;46.50
4509;DHT22;2267;48.816;9.230;2023-07-13T13:59:19;31.10;47.00
4509;DHT22;2267;48.816;9.230;2023-07-13T14:01:47;31.10;47.00
4509;DHT22;2267;48.816;9.230;2023-07-13T14:04:18;30.90;46.70
4509;DHT22;2267;48.816;9.230;2023-07-13T14:06:46;30.70;46.60
4509;DHT22;2267;48.816;9.230;2023-07-13T14:09:16;30.70;46.70
4509;DHT22;2267;48.816;9.230;2023-07-13T14:11:46;30.60;46.90
4509;DHT22;2267;48.816;9.230;2023-07-13T14:14:19;30.40;47.10
4509;DHT22;2267;48.816;9.230;2023-07-13T14:16:47;30.40;46.80
4509;DHT22;2267;48.816;9.230;2023-07-13T14:19:20;30.70;47.50
4509;DHT22;2267;48.816;9.230;2023-07-13T14:21:47;30.50;46.80
4509;DHT22;2267;48.816;9.230;2023-07-13T14:24:16;30.60;47.40
4509;DHT22;2267;48.816;9.230;2023-07-13T14:26:45;30.80;47.50
4509;DHT22;2267;48.816;9.230;2023-07-13T14:29:17;30.70;46.60
4509;DHT22;2267;48.816;9.230;2023-07-13T14:31:49;30.70;46.80
4509;DHT22;2267;48.816;9.230;2023-07-13T14:34:16;30.80;46.30
4509;DHT22;2267;48.816;9.230;2023-07-13T14:36:45;30.80;45.80
4509;DHT22;2267;48.816;9.230;2023-07-13T14:39:23;31.00;46.40
4509;DHT22;2267;48.816;9.230;2023-07-13T14:41:52;31.20;46.50
4509;DHT22;2267;48.816;9.230;2023-07-13T14:44:28;31.30;45.70
4509;DHT22;2267;48.816;9.230;2023-07-13T14:46:59;31.40;45.30
4509;DHT22;2267;48.816;9.230;2023-07-13T14:49:32;31.50;45.10
4509;DHT22;2267;48.816;9.230;2023-07-13T14:52:09;31.50;45.10
4509;DHT22;2267;48.816;9.230;2023-07-13T14:54:37;31.60;45.30
4509;DHT22;2267;48.816;9.230;2023-07-13T14:57:11;31.70;45.30
4509;DHT22;2267;48.816;9.230;2023-07-13T14:59:38;31.70;45.70
4509;DHT22;2267;48.816;9.230;2023-07-13T15:04:40;31.80;45.10
4509;DHT22;2267;48.816;9.230;2023-07-13T15:07:10;31.80;45.20
4509;DHT22;2267;48.816;9.230;2023-07-13T15:09:37;31.70;45.30
4509;DHT22;2267;48.816;9.230;2023-07-13T15:12:04;31.60;46.10
4509;DHT22;2267;48.816;9.230;2023-07-13T15:14:32;31.60;45.50
4509;DHT22;2267;48.816;9.230;2023-07-13T15:16:59;31.50;45.00
4509;DHT22;2267;48.816;9.230;2023-07-13T15:19:26;31.40;45.10
4509;DHT22;2267;48.816;9.230;2023-07-13T15:21:56;31.40;45.50
4509;DHT22;2267;48.816;9.230;2023-07-13T15:24:27;31.30;45.50
4509;DHT22;2267;48.816;9.230;2023-07-13T15:26:54;31.30;45.80
4509;DHT22;2267;48.816;9.230;2023-07-13T15:29:21;31.40;45.90
4509;DHT22;2267;48.816;9.230;2023-07-13T15:31:47;31.40;45.90
4509;DHT22;2267;48.816;9.230;2023-07-13T15:34:16;31.40;45.70
4509;DHT22;2267;48.816;9.230;2023-07-13T15:36:44;31.40;45.80
4509;DHT22;2267;48.816;9.230;2023-07-13T15:39:16;31.30;45.60
4509;DHT22;2267;48.816;9.230;2023-07-13T15:41:44;31.20;45.20
4509;DHT22;2267;48.816;9.230;2023-07-13T15:44:29;31.30;45.90
4509;DHT22;2267;48.816;9.230;2023-07-13T15:46:57;31.10;45.90
4509;DHT22;2267;48.816;9.230;2023-07-13T15:49:27;31.00;45.60
4509;DHT22;2267;48.816;9.230;2023-07-13T15:51:54;31.00;45.90
4509;DHT22;2267;48.816;9.230;2023-07-13T15:54:22;31.00;46.10
4509;DHT22;2267;48.816;9.230;2023-07-13T15:56:55;31.00;46.00
4509;DHT22;2267;48.816;9.230;2023-07-13T15:59:24;31.00;46.30
4509;DHT22;2267;48.816;9.230;2023-07-13T16:01:51;31.00;46.30
4509;DHT22;2267;48.816;9.230;2023-07-13T16:04:18;31.00;46.30
4509;DHT22;2267;48.816;9.230;2023-07-13T16:06:46;31.00;46.70
4509;DHT22;2267;48.816;9.230;2023-07-13T16:09:21;31.00;46.60
4509;DHT22;2267;48.816;9.230;2023-07-13T16:11:50;30.80;45.80
4509;DHT22;2267;48.816;9.230;2023-07-13T16:14:18;30.80;46.30
4509;DHT22;2267;48.816;9.230;2023-07-13T16:16:47;30.80;46.30
4509;DHT22;2267;48.816;9.230;2023-07-13T16:19:15;30.80;46.40
4509;DHT22;2267;48.816;9.230;2023-07-13T16:21:44;30.80;46.60
4509;DHT22;2267;48.816;9.230;2023-07-13T16:24:17;30.80;46.30
4509;DHT22;2267;48.816;9.230;2023-07-13T16:26:44;30.90;46.60
4509;DHT22;2267;48.816;9.230;2023-07-13T16:29:22;30.80;46.10
4509;DHT22;2267;48.816;9.230;2023-07-13T16:32:01;30.70;46.20
4509;DHT22;2267;48.816;9.230;2023-07-13T16:34:34;30.70;46.20
4509;DHT22;2267;48.816;9.230;2023-07-13T16:37:05;30.60;46.10
4509;DHT22;2267;48.816;9.230;2023-07-13T16:39:37;30.50;45.70
4509;DHT22;2267;48.816;9.230;2023-07-13T16:42:04;30.30;45.60
4509;DHT22;2267;48.816;9.230;2023-07-13T16:44:32;30.30;46.10
4509;DHT22;2267;48.816;9.230;2023-07-13T16:46:59;30.20;45.90
4509;DHT22;2267;48.816;9.230;2023-07-13T16:49:29;30.20;46.40
4509;DHT22;2267;48.816;9.230;2023-07-13T16:51:58;30.20;46.50
4509;DHT22;2267;48.816;9.230;2023-07-13T16:54:33;30.20;46.70
4509;DHT22;2267;48.816;9.230;2023-07-13T16:57:03;30.20;46.80
4509;DHT22;2267;48.816;9.230;2023-07-13T16:59:34;30.20;46.80
4509;DHT22;2267;48.816;9.230;2023-07-13T17:02:04;30.10;46.70
4509;DHT22;2267;48.816;9.230;2023-07-13T17:04:42;30.00;46.80
4509;DHT22;2267;48.816;9.230;2023-07-13T17:07:09;30.00;46.60
4509;DHT22;2267;48.816;9.230;2023-07-13T17:09:37;29.90;47.00